Time;durP1;ratioP1;P1;durP2;ratioP2;P2;SDS_P1;SDS_P2;PMS_P1;PMS_P2;Temp;Humidity;BMP_temperature;BMP_pressure;BME280_temperature;BME280_humidity;BME280_pressure;Samples;Min_cycle;Max_cycle;Signal;HPM_P1;HPM_P2
2023/12/07 00:00:54;;;;;;;11.57;11.17;;;2.50;99.90;;;;;;5122222;27;20229;-81
2023/12/07 00:03:21;;;;;;;11.60;11.20;;;2.60;99.90;;;;;;5128666;27;20274;-79
2023/12/07 00:05:48;;;;;;;11.83;11.43;;;2.60;99.90;;;;;;5125688;27;20245;-80
2023/12/07 00:08:15;;;;;;;11.53;11.13;;;2.60;99.90;;;;;;5131304;27;20290;-79
2023/12/07 00:10:41;;;;;;;11.30;10.90;;;2.60;99.90;;;;;;5132539;27;20233;-80
2023/12/07 00:13:09;;;;;;;11.53;11.13;;;2.60;99.90;;;;;;5131251;27;20221;-79
2023/12/07 00:15:37;;;;;;;11.60;11.20;;;2.50;99.90;;;;;;5131527;27;20282;-79
2023/12/07 00:18:05;;;;;;;11.37;10.97;;;2.50;99.90;;;;;;5132073;27;20225;-80
2023/12/07 00:20:32;;;;;;;11.63;11.23;;;2.60;99.90;;;;;;5122372;28;20233;-80
2023/12/07 00:22:59;;;;;;;11.43;11.03;;;2.60;99.90;;;;;;5120038;27;20261;-79
2023/12/07 00:25:26;;;;;;;11.67;11.27;;;2.60;99.90;;;;;;5135544;27;20232;-80
2023/12/07 00:27:54;;;;;;;11.60;11.20;;;2.70;99.90;;;;;;5105589;27;20303;-79
2023/12/07 00:30:21;;;;;;;11.60;11.20;;;2.60;99.90;;;;;;5110724;27;20275;-80
2023/12/07 00:32:50;;;;;;;11.40;11.00;;;2.60;99.90;;;;;;5119549;27;20271;-79
2023/12/07 00:35:21;;;;;;;11.13;10.73;;;2.60;99.90;;;;;;5122516;27;20237;-79
2023/12/07 00:37:49;;;;;;;11.30;10.90;;;2.50;99.90;;;;;;5122655;27;20225;-79
2023/12/07 00:40:16;;;;;;;11.53;11.13;;;2.50;99.90;;;;;;5131892;27;20208;-80
2023/12/07 00:42:44;;;;;;;11.47;11.07;;;2.40;99.90;;;;;;5114741;27;20292;-79
2023/12/07 00:45:13;;;;;;;11.67;11.27;;;2.50;99.90;;;;;;5122471;27;20229;-80
2023/12/07 00:47:41;;;;;;;11.67;11.27;;;2.40;99.90;;;;;;5131491;27;20655;-79
2023/12/07 00:50:14;;;;;;;11.50;11.10;;;2.40;99.90;;;;;;5127288;27;20212;-79
2023/12/07 00:52:42;;;;;;;11.50;11.10;;;2.40;99.90;;;;;;5120909;27;20296;-79
2023/12/07 00:55:09;;;;;;;11.50;11.10;;;2.40;99.90;;;;;;5127007;27;20224;-79
2023/12/07 00:57:36;;;;;;;11.53;11.13;;;2.30;99.90;;;;;;5122548;27;20233;-79
2023/12/07 01:00:06;;;;;;;11.40;11.00;;;2.30;99.90;;;;;;5127544;27;20292;-79
2023/12/07 01:02:33;;;;;;;11.23;10.83;;;2.30;99.90;;;;;;5117137;27;20241;-79
2023/12/07 01:05:00;;;;;;;11.40;11.00;;;2.30;99.90;;;;;;5123242;27;20232;-80
2023/12/07 01:07:29;;;;;;;11.30;10.90;;;2.30;99.90;;;;;;5129360;27;20228;-79
2023/12/07 01:09:56;;;;;;;11.50;11.10;;;2.30;99.90;;;;;;5115089;27;20224;-79
2023/12/07 01:12:23;;;;;;;11.60;11.20;;;2.40;99.90;;;;;;5123110;27;20244;-79
2023/12/07 01:14:50;;;;;;;11.80;11.40;;;2.40;99.90;;;;;;5116309;27;20299;-79
2023/12/07 01:17:18;;;;;;;11.80;11.40;;;2.30;99.90;;;;;;5129479;27;20237;-79
2023/12/07 01:19:45;;;;;;;11.60;11.20;;;2.40;99.90;;;;;;5148665;27;20220;-79
2023/12/07 01:22:12;;;;;;;11.77;11.37;;;2.40;99.90;;;;;;5129405;27;20232;-80
2023/12/07 01:24:41;;;;;;;11.50;11.10;;;2.40;99.90;;;;;;5132251;27;20228;-79
2023/12/07 01:27:08;;;;;;;11.77;11.37;;;2.30;99.90;;;;;;5122850;27;20272;-79
2023/12/07 01:29:35;;;;;;;11.57;11.17;;;2.30;99.90;;;;;;5129798;27;20312;-80
2023/12/07 01:32:03;;;;;;;11.63;11.23;;;2.20;99.90;;;;;;5105604;27;20236;-80
2023/12/07 01:34:30;;;;;;;11.57;11.17;;;2.20;99.90;;;;;;5123964;27;20221;-80
2023/12/07 01:36:57;;;;;;;11.10;10.70;;;2.30;99.90;;;;;;5123098;27;20217;-80
2023/12/07 01:39:24;;;;;;;11.40;11.00;;;2.30;99.90;;;;;;5126085;27;20220;-79
2023/12/07 01:41:53;;;;;;;11.67;11.27;;;2.30;99.90;;;;;;5132055;27;20245;-79
2023/12/07 01:44:20;;;;;;;11.40;11.00;;;2.30;99.90;;;;;;5130706;27;20232;-80
2023/12/07 01:46:48;;;;;;;11.20;10.80;;;2.30;99.90;;;;;;5135294;27;20267;-80
2023/12/07 01:49:15;;;;;;;11.30;10.90;;;2.30;99.90;;;;;;5113913;28;20244;-79
2023/12/07 01:51:43;;;;;;;11.17;10.77;;;2.30;99.90;;;;;;5130130;27;20266;-79
2023/12/07 01:54:10;;;;;;;11.33;10.93;;;2.30;99.90;;;;;;5135350;27;20241;-79
2023/12/07 01:56:38;;;;;;;11.47;11.07;;;2.30;99.90;;;;;;5135425;27;20229;-79
2023/12/07 01:59:06;;;;;;;11.30;10.90;;;2.30;99.90;;;;;;5148367;27;20239;-79
2023/12/07 02:01:33;;;;;;;11.67;11.27;;;2.30;99.90;;;;;;5130080;27;20241;-79
2023/12/07 02:04:01;;;;;;;11.67;11.27;;;2.30;99.90;;;;;;5138775;27;20295;-81
2023/12/07 02:06:28;;;;;;;11.60;11.20;;;2.30;99.90;;;;;;5120640;27;20217;-79
2023/12/07 02:08:55;;;;;;;11.50;11.10;;;2.30;99.90;;;;;;5125433;27;20230;-79
2023/12/07 02:11:23;;;;;;;11.40;11.00;;;2.30;99.90;;;;;;5143310;27;20228;-79
2023/12/07 02:13:54;;;;;;;11.60;11.20;;;2.40;99.90;;;;;;5137452;28;20248;-79
2023/12/07 02:16:31;;;;;;;11.27;10.87;;;2.40;99.90;;;;;;5132164;27;20224;-80
2023/12/07 02:19:10;;;;;;;11.37;10.97;;;2.40;99.90;;;;;;5128983;28;20282;-80
2023/12/07 02:21:44;;;;;;;11.27;10.87;;;2.40;99.90;;;;;;5124635;28;20256;-79
2023/12/07 02:24:22;;;;;;;11.50;11.10;;;2.40;99.90;;;;;;5112714;28;20277;-79
2023/12/07 02:26:54;;;;;;;11.67;11.27;;;2.40;99.90;;;;;;5112837;27;20243;-80
2023/12/07 02:29:21;;;;;;;11.60;11.20;;;2.30;99.90;;;;;;5136626;27;20239;-79
2023/12/07 02:31:48;;;;;;;11.50;11.10;;;2.30;99.90;;;;;;5123303;28;20233;-79
2023/12/07 02:34:15;;;;;;;11.70;11.30;;;2.40;99.90;;;;;;5130784;27;20228;-79
2023/12/07 02:36:44;;;;;;;11.77;11.37;;;2.30;99.90;;;;;;5132868;27;20228;-80
2023/12/07 02:39:13;;;;;;;11.37;10.97;;;2.30;99.90;;;;;;5137634;27;20236;-80
2023/12/07 02:41:41;;;;;;;11.60;11.20;;;2.30;99.90;;;;;;5130356;27;20324;-79
2023/12/07 02:44:10;;;;;;;11.63;11.23;;;2.30;99.90;;;;;;5132502;27;20324;-80
2023/12/07 02:46:38;;;;;;;11.30;10.90;;;2.30;99.90;;;;;;5138021;28;20217;-80
2023/12/07 02:49:05;;;;;;;11.70;11.30;;;2.40;99.90;;;;;;5137537;28;20235;-79
2023/12/07 02:51:33;;;;;;;11.50;11.10;;;2.40;99.90;;;;;;5138475;28;20228;-79
2023/12/07 02:54:00;;;;;;;11.53;11.13;;;2.40;99.90;;;;;;5137947;28;20229;-80
2023/12/07 02:56:27;;;;;;;11.47;11.07;;;2.40;99.90;;;;;;5130840;27;20237;-79
2023/12/07 02:58:54;;;;;;;11.33;10.93;;;2.40;99.90;;;;;;5125600;28;20281;-80
2023/12/07 03:01:23;;;;;;;11.20;10.80;;;2.40;99.90;;;;;;5125488;28;20267;-79
2023/12/07 03:03:50;;;;;;;11.30;10.90;;;2.50;99.90;;;;;;5125614;28;20236;-80
2023/12/07 03:06:19;;;;;;;11.30;10.90;;;2.40;99.90;;;;;;5125359;27;20244;-80
2023/12/07 03:08:46;;;;;;;11.47;11.07;;;2.50;99.90;;;;;;5125285;28;20229;-80
2023/12/07 03:11:14;;;;;;;11.30;10.90;;;2.50;99.90;;;;;;5124602;28;20290;-82
2023/12/07 03:13:41;;;;;;;11.23;10.83;;;2.50;99.90;;;;;;5124733;27;20258;-80
2023/12/07 03:16:11;;;;;;;11.57;11.17;;;2.50;99.90;;;;;;5124816;28;20228;-79
2023/12/07 03:18:39;;;;;;;11.60;11.20;;;2.40;99.90;;;;;;5124613;28;20228;-80
2023/12/07 03:21:07;;;;;;;11.50;11.10;;;2.50;99.90;;;;;;5124234;27;20247;-80
2023/12/07 03:23:34;;;;;;;11.47;11.07;;;2.50;99.90;;;;;;5124348;28;20243;-81
2023/12/07 03:26:01;;;;;;;11.50;11.10;;;2.50;99.90;;;;;;5124187;27;20224;-80
2023/12/07 03:28:28;;;;;;;11.43;11.03;;;2.40;99.90;;;;;;5124144;28;20271;-79
2023/12/07 03:30:56;;;;;;;11.67;11.27;;;2.40;99.90;;;;;;5124854;28;20237;-79
2023/12/07 03:33:23;;;;;;;11.57;11.17;;;2.40;99.90;;;;;;5125076;27;20317;-80
2023/12/07 03:35:51;;;;;;;11.23;10.83;;;2.40;99.90;;;;;;5124884;28;20236;-79
2023/12/07 03:38:19;;;;;;;11.50;11.10;;;2.40;99.90;;;;;;5125651;27;20205;-80
2023/12/07 03:40:47;;;;;;;11.60;11.20;;;2.40;99.90;;;;;;5124035;28;20240;-80
2023/12/07 03:43:15;;;;;;;11.50;11.10;;;2.40;99.90;;;;;;5124328;28;20232;-80
2023/12/07 03:45:42;;;;;;;11.50;11.10;;;2.40;99.90;;;;;;5124228;28;20337;-79
2023/12/07 03:48:09;;;;;;;11.60;11.20;;;2.40;99.90;;;;;;5124551;28;20267;-79
2023/12/07 03:50:37;;;;;;;11.60;11.20;;;2.40;99.90;;;;;;5123791;27;20229;-79
2023/12/07 03:53:05;;;;;;;11.70;11.30;;;2.40;99.90;;;;;;5124451;28;20291;-79
2023/12/07 03:55:33;;;;;;;11.77;11.37;;;2.30;99.90;;;;;;5123720;28;20314;-80
2023/12/07 03:58:00;;;;;;;11.53;11.13;;;2.30;99.90;;;;;;5123535;28;20229;-80
2023/12/07 04:00:27;;;;;;;11.77;11.37;;;2.30;99.90;;;;;;5123943;28;20293;-80
2023/12/07 04:02:54;;;;;;;11.70;11.30;;;2.30;99.90;;;;;;5116783;27;20237;-80
2023/12/07 04:05:22;;;;;;;11.90;11.50;;;2.20;99.90;;;;;;5122528;27;20273;-80
2023/12/07 04:07:49;;;;;;;12.13;11.73;;;2.10;99.90;;;;;;5129023;27;20228;-80
2023/12/07 04:10:18;;;;;;;12.40;12.00;;;2.10;99.90;;;;;;5128008;27;20228;-79
2023/12/07 04:12:45;;;;;;;12.00;11.60;;;2.10;99.90;;;;;;5126383;27;20232;-80
2023/12/07 04:15:12;;;;;;;11.97;11.57;;;2.00;99.90;;;;;;5135405;27;20220;-80
2023/12/07 04:17:39;;;;;;;11.97;11.57;;;2.00;99.90;;;;;;5144036;27;20227;-80
2023/12/07 04:20:09;;;;;;;11.97;11.57;;;2.00;99.90;;;;;;5143843;27;20228;-80
2023/12/07 04:22:36;;;;;;;12.10;11.70;;;2.00;99.90;;;;;;5133759;27;20234;-80
2023/12/07 04:25:04;;;;;;;11.87;11.47;;;2.00;99.90;;;;;;5128866;27;20243;-80
2023/12/07 04:27:33;;;;;;;11.73;11.33;;;2.00;99.90;;;;;;5136469;27;20231;-79
2023/12/07 04:30:01;;;;;;;11.73;11.33;;;2.00;99.90;;;;;;5145677;27;20747;-79
2023/12/07 04:32:28;;;;;;;11.57;11.17;;;2.00;99.90;;;;;;5144545;27;20236;-80
2023/12/07 04:34:55;;;;;;;11.60;11.20;;;2.10;99.90;;;;;;5144777;27;20238;-79
2023/12/07 04:37:23;;;;;;;11.40;11.00;;;2.10;99.90;;;;;;5144760;27;20216;-80
2023/12/07 04:39:51;;;;;;;11.50;11.10;;;2.10;99.90;;;;;;5145015;27;20232;-79
2023/12/07 04:42:18;;;;;;;11.77;11.37;;;2.10;99.90;;;;;;5144040;27;20229;-81
2023/12/07 04:44:46;;;;;;;11.50;11.10;;;2.10;99.90;;;;;;5151377;27;20262;-79
2023/12/07 04:47:14;;;;;;;11.43;11.03;;;2.10;99.90;;;;;;5150369;27;20239;-79
2023/12/07 04:49:41;;;;;;;11.53;11.13;;;2.20;99.90;;;;;;5144893;27;20220;-81
2023/12/07 04:52:08;;;;;;;11.50;11.10;;;2.20;99.90;;;;;;5143530;27;20232;-80
2023/12/07 04:54:35;;;;;;;11.67;11.27;;;2.20;99.90;;;;;;5143885;27;20228;-79
2023/12/07 04:57:03;;;;;;;11.60;11.20;;;2.20;99.90;;;;;;5143060;27;20236;-79
2023/12/07 04:59:30;;;;;;;11.63;11.23;;;2.20;99.90;;;;;;5143905;27;20219;-80
2023/12/07 05:01:59;;;;;;;11.70;11.30;;;2.10;99.90;;;;;;5143030;27;20240;-80
2023/12/07 05:04:26;;;;;;;11.53;11.13;;;2.20;99.90;;;;;;5143409;27;20236;-80
2023/12/07 05:06:53;;;;;;;11.53;11.13;;;2.20;99.90;;;;;;5143950;27;20285;-80
2023/12/07 05:09:21;;;;;;;11.80;11.40;;;2.20;99.90;;;;;;5143439;27;20265;-79
2023/12/07 05:11:48;;;;;;;11.67;11.27;;;2.20;99.90;;;;;;5143864;27;20235;-79
2023/12/07 05:14:15;;;;;;;11.30;10.90;;;2.20;99.90;;;;;;5143473;27;20228;-79
2023/12/07 05:16:43;;;;;;;11.60;11.20;;;2.20;99.90;;;;;;5143113;27;20224;-79
2023/12/07 05:19:12;;;;;;;11.20;10.80;;;2.20;99.90;;;;;;5126210;27;20263;-80
2023/12/07 05:21:39;;;;;;;11.53;11.13;;;2.20;99.90;;;;;;5126715;27;20233;-79
2023/12/07 05:24:08;;;;;;;11.07;10.67;;;2.20;99.90;;;;;;5138245;27;20231;-79
2023/12/07 05:26:35;;;;;;;11.00;10.60;;;2.20;99.90;;;;;;5146367;27;20289;-80
2023/12/07 05:29:03;;;;;;;11.37;10.97;;;2.20;99.90;;;;;;5147716;27;20253;-79
2023/12/07 05:31:31;;;;;;;11.60;11.20;;;2.20;99.90;;;;;;5146618;27;20659;-79
2023/12/07 05:33:58;;;;;;;11.30;10.90;;;2.10;99.90;;;;;;5146878;27;20228;-80
2023/12/07 05:36:27;;;;;;;11.33;10.93;;;2.10;99.90;;;;;;5147586;27;20238;-80
2023/12/07 05:38:54;;;;;;;11.20;10.80;;;2.10;99.90;;;;;;5150360;27;20224;-79
2023/12/07 05:41:22;;;;;;;11.13;10.73;;;2.10;99.90;;;;;;5150359;27;20231;-80
2023/12/07 05:43:50;;;;;;;11.30;10.90;;;2.00;99.90;;;;;;5148419;27;20293;-80
2023/12/07 05:46:18;;;;;;;11.07;10.67;;;2.00;99.90;;;;;;5147454;27;20216;-80
2023/12/07 05:48:48;;;;;;;11.10;10.70;;;2.00;99.90;;;;;;5147015;27;20258;-79
2023/12/07 05:51:17;;;;;;;11.00;10.60;;;2.00;99.90;;;;;;5146563;27;20231;-81
2023/12/07 05:53:47;;;;;;;10.80;10.50;;;2.00;99.90;;;;;;5129509;27;20235;-79
2023/12/07 05:56:20;;;;;;;10.97;10.60;;;1.90;99.90;;;;;;5128674;27;20221;-79
2023/12/07 05:58:50;;;;;;;10.70;10.40;;;1.90;99.90;;;;;;5126792;27;20249;-80
2023/12/07 06:01:20;;;;;;;10.93;10.53;;;1.80;99.90;;;;;;5123343;27;20232;-79
2023/12/07 06:03:47;;;;;;;11.23;10.83;;;1.80;99.90;;;;;;5123262;27;20251;-77
2023/12/07 06:06:17;;;;;;;11.10;10.70;;;1.70;99.90;;;;;;5130807;27;20212;-79
2023/12/07 06:08:48;;;;;;;11.00;10.60;;;1.80;99.90;;;;;;5120223;27;20233;-80
2023/12/07 06:11:17;;;;;;;10.83;10.43;;;1.70;99.90;;;;;;5139079;27;20238;-80
2023/12/07 06:13:49;;;;;;;10.90;10.50;;;1.70;99.90;;;;;;5149622;27;20292;-82
2023/12/07 06:16:18;;;;;;;10.83;10.47;;;1.70;99.90;;;;;;5148334;27;20220;-80
2023/12/07 06:18:48;;;;;;;10.67;10.37;;;1.60;99.90;;;;;;5147618;27;20224;-79
2023/12/07 06:21:15;;;;;;;11.30;10.90;;;1.60;99.90;;;;;;5147378;27;20312;-79
2023/12/07 06:23:44;;;;;;;10.90;10.50;;;1.60;99.90;;;;;;5147396;27;20281;-79
2023/12/07 06:26:16;;;;;;;10.83;10.43;;;1.60;99.90;;;;;;5146934;27;20234;-79
2023/12/07 06:28:44;;;;;;;10.50;10.20;;;1.50;99.90;;;;;;5146774;27;20228;-79
2023/12/07 06:31:12;;;;;;;11.00;10.60;;;1.50;99.90;;;;;;5145229;27;20240;-80
2023/12/07 06:33:39;;;;;;;10.93;10.53;;;1.40;99.90;;;;;;5146698;27;20231;-79
2023/12/07 06:36:10;;;;;;;10.77;10.43;;;1.40;99.90;;;;;;5146587;27;20299;-80
2023/12/07 06:38:38;;;;;;;10.63;10.33;;;1.40;99.90;;;;;;5147400;27;20219;-79
2023/12/07 06:41:05;;;;;;;11.33;10.93;;;1.40;99.90;;;;;;5146524;27;20228;-79
2023/12/07 06:43:34;;;;;;;11.00;10.60;;;1.30;99.90;;;;;;5147218;27;20228;-80
2023/12/07 06:46:01;;;;;;;11.23;10.83;;;1.30;99.90;;;;;;5146706;27;20232;-80
2023/12/07 06:48:28;;;;;;;11.40;11.00;;;1.30;99.90;;;;;;5146547;27;20376;-80
2023/12/07 06:50:56;;;;;;;11.27;10.87;;;1.30;99.90;;;;;;5146137;27;20266;-80
2023/12/07 06:53:23;;;;;;;11.37;10.97;;;1.20;99.90;;;;;;5150714;27;20228;-80
2023/12/07 06:55:50;;;;;;;11.30;10.90;;;1.20;99.90;;;;;;5147470;27;20266;-80
2023/12/07 06:58:18;;;;;;;11.90;11.50;;;1.10;99.90;;;;;;5146449;27;20254;-80
2023/12/07 07:00:47;;;;;;;11.87;11.47;;;1.00;99.90;;;;;;5146014;27;20266;-80
2023/12/07 07:03:14;;;;;;;12.00;11.60;;;1.00;99.90;;;;;;5146188;27;20220;-80
2023/12/07 07:05:41;;;;;;;11.60;11.20;;;1.00;99.90;;;;;;5146933;27;20243;-80
2023/12/07 07:08:09;;;;;;;11.47;11.07;;;1.00;99.90;;;;;;5146262;27;20258;-79
2023/12/07 07:10:36;;;;;;;11.70;11.30;;;1.00;99.90;;;;;;5145604;27;20235;-80
2023/12/07 07:13:04;;;;;;;12.00;11.60;;;1.00;99.90;;;;;;5138227;27;20405;-79
2023/12/07 07:15:32;;;;;;;11.90;11.50;;;1.00;99.90;;;;;;5134695;27;20238;-80
2023/12/07 07:18:01;;;;;;;11.97;11.57;;;1.00;99.90;;;;;;5125019;27;20233;-80
2023/12/07 07:20:29;;;;;;;11.90;11.50;;;1.10;99.90;;;;;;5123597;27;20274;-80
2023/12/07 07:22:56;;;;;;;11.57;11.17;;;1.20;99.90;;;;;;5124290;28;20216;-80
2023/12/07 07:25:23;;;;;;;11.70;11.30;;;1.20;99.90;;;;;;5123537;28;20221;-80
2023/12/07 07:27:52;;;;;;;11.83;11.43;;;1.20;99.90;;;;;;5124456;28;20290;-80
2023/12/07 07:30:19;;;;;;;11.27;10.87;;;1.30;99.90;;;;;;5124229;27;20236;-80
2023/12/07 07:32:46;;;;;;;11.07;10.67;;;1.30;99.90;;;;;;5123856;27;20224;-79
2023/12/07 07:35:15;;;;;;;11.17;10.77;;;1.30;99.90;;;;;;5123118;28;20290;-79
2023/12/07 07:37:44;;;;;;;10.90;10.50;;;1.40;99.90;;;;;;5123058;28;20229;-80
2023/12/07 07:40:13;;;;;;;11.17;10.77;;;1.40;99.90;;;;;;5124390;28;20224;-79
2023/12/07 07:42:40;;;;;;;11.40;11.00;;;1.40;99.90;;;;;;5123681;27;20228;-79
2023/12/07 07:45:11;;;;;;;11.30;10.90;;;1.50;99.90;;;;;;5123838;28;20291;-78
2023/12/07 07:47:38;;;;;;;11.50;11.10;;;1.50;99.90;;;;;;5123482;28;20224;-79
2023/12/07 07:50:06;;;;;;;11.67;11.27;;;1.50;99.90;;;;;;5123480;27;20228;-78
2023/12/07 07:52:36;;;;;;;11.57;11.17;;;1.60;99.90;;;;;;5124397;28;20233;-78
2023/12/07 07:55:12;;;;;;;11.30;10.90;;;1.60;99.90;;;;;;5124856;28;20224;-79
2023/12/07 07:57:39;;;;;;;11.50;11.10;;;1.60;99.90;;;;;;5133391;27;20239;-78
2023/12/07 08:00:09;;;;;;;11.10;10.70;;;1.60;99.90;;;;;;5133245;27;20329;-78
2023/12/07 08:02:36;;;;;;;11.23;10.83;;;1.70;99.90;;;;;;5143216;27;20266;-77
2023/12/07 08:05:07;;;;;;;11.30;10.90;;;1.70;99.90;;;;;;5138013;27;20217;-78
2023/12/07 08:07:39;;;;;;;11.10;10.70;;;1.70;99.90;;;;;;5140140;27;20213;-79
2023/12/07 08:10:08;;;;;;;10.90;10.60;;;1.70;99.90;;;;;;5140078;27;20235;-78
2023/12/07 08:12:36;;;;;;;11.33;10.93;;;1.70;99.90;;;;;;5139144;27;20239;-78
2023/12/07 08:15:10;;;;;;;11.40;11.00;;;1.70;99.90;;;;;;5139752;27;20201;-79
2023/12/07 08:17:41;;;;;;;10.77;10.47;;;1.70;99.90;;;;;;5140833;27;20224;-79
2023/12/07 08:20:14;;;;;;;10.73;10.43;;;1.70;99.90;;;;;;5141051;27;20225;-79
2023/12/07 08:22:44;;;;;;;11.17;10.77;;;1.70;99.90;;;;;;5140600;27;20296;-78
2023/12/07 08:25:12;;;;;;;10.67;10.37;;;1.70;99.90;;;;;;5140508;27;20227;-79
2023/12/07 08:27:40;;;;;;;10.97;10.67;;;1.70;99.90;;;;;;5136808;27;20221;-80
2023/12/07 08:30:11;;;;;;;10.73;10.43;;;1.70;99.90;;;;;;5140323;27;20305;-80
2023/12/07 08:32:38;;;;;;;11.20;10.80;;;1.80;99.90;;;;;;5140641;27;20232;-77
2023/12/07 08:35:09;;;;;;;11.10;10.70;;;1.70;99.90;;;;;;5140860;27;20221;-77
2023/12/07 08:37:39;;;;;;;11.20;10.80;;;1.70;99.90;;;;;;5140870;27;20268;-79
2023/12/07 08:43:28;;;;;;;11.53;11.13;;;1.70;99.90;;;;;;5120348;27;20225;-79
2023/12/07 08:45:57;;;;;;;11.00;10.60;;;1.90;99.90;;;;;;5130121;28;20288;-79
2023/12/07 08:48:25;;;;;;;11.10;10.70;;;2.00;99.90;;;;;;5132727;27;20225;-79
2023/12/07 08:50:52;;;;;;;11.10;10.70;;;2.00;99.90;;;;;;5126067;27;20305;-78
2023/12/07 08:53:19;;;;;;;11.27;10.87;;;2.10;99.90;;;;;;5124960;28;20221;-78
2023/12/07 08:55:48;;;;;;;11.33;10.93;;;2.10;99.90;;;;;;5125350;28;20221;-79
2023/12/07 08:58:18;;;;;;;11.17;10.77;;;2.20;99.90;;;;;;5126251;28;20228;-80
2023/12/07 09:00:46;;;;;;;11.20;10.80;;;2.20;99.90;;;;;;5126011;28;20237;-79
2023/12/07 09:03:16;;;;;;;11.10;10.70;;;2.30;99.90;;;;;;5125025;28;20260;-79
2023/12/07 09:05:46;;;;;;;11.10;10.70;;;2.40;99.90;;;;;;5118118;28;20233;-81
2023/12/07 09:08:17;;;;;;;10.40;10.10;;;2.50;99.90;;;;;;5131965;27;20225;-79
2023/12/07 09:10:51;;;;;;;10.40;10.10;;;2.60;99.90;;;;;;5106041;28;20233;-79
2023/12/07 09:13:21;;;;;;;10.53;10.23;;;2.70;99.90;;;;;;5106508;28;20225;-79
2023/12/07 09:15:48;;;;;;;10.50;10.20;;;2.80;99.90;;;;;;5106035;28;20225;-79
2023/12/07 09:18:16;;;;;;;10.20;9.90;;;3.00;99.90;;;;;;5106458;28;20233;-79
2023/12/07 09:20:45;;;;;;;10.30;10.00;;;3.10;99.90;;;;;;5108141;28;20287;-79
2023/12/07 09:23:14;;;;;;;10.40;10.10;;;3.30;99.90;;;;;;5109463;28;20229;-79
2023/12/07 09:25:42;;;;;;;9.87;9.57;;;3.50;99.90;;;;;;5106553;28;20221;-80
2023/12/07 09:28:11;;;;;;;10.20;9.90;;;3.60;99.90;;;;;;5103783;27;20296;-79
2023/12/07 09:30:38;;;;;;;10.30;10.00;;;3.70;99.90;;;;;;5105500;28;20229;-79
2023/12/07 09:33:06;;;;;;;9.90;9.60;;;3.80;99.90;;;;;;5107879;28;20391;-80
2023/12/07 09:35:34;;;;;;;10.03;9.73;;;3.90;99.90;;;;;;5106653;28;20323;-81
2023/12/07 09:38:02;;;;;;;10.17;9.87;;;4.10;99.90;;;;;;5126849;27;20224;-79
2023/12/07 09:40:30;;;;;;;10.43;10.13;;;4.30;99.90;;;;;;5141561;27;20227;-78
2023/12/07 09:42:58;;;;;;;10.60;10.30;;;4.50;99.90;;;;;;5146634;27;20228;-79
2023/12/07 09:45:26;;;;;;;10.10;9.80;;;4.70;99.90;;;;;;5147524;27;20243;-80
2023/12/07 09:47:55;;;;;;;10.07;9.77;;;5.00;99.90;;;;;;5146465;27;20251;-79
2023/12/07 09:50:24;;;;;;;10.17;9.87;;;5.20;99.90;;;;;;5146392;27;20228;-81
2023/12/07 09:52:53;;;;;;;10.23;9.93;;;5.20;99.90;;;;;;5147527;27;20297;-80
2023/12/07 09:55:22;;;;;;;10.27;9.97;;;5.10;99.90;;;;;;5146456;27;20223;-80
2023/12/07 09:57:50;;;;;;;9.90;9.60;;;5.10;99.90;;;;;;5146029;27;20224;-80
2023/12/07 10:00:18;;;;;;;9.80;9.50;;;5.20;99.90;;;;;;5145834;27;20232;-79
2023/12/07 10:02:48;;;;;;;9.47;9.17;;;5.30;99.90;;;;;;5145928;27;20232;-79
2023/12/07 10:05:17;;;;;;;10.10;9.80;;;5.40;99.90;;;;;;5149003;27;20228;-79
2023/12/07 10:07:47;;;;;;;9.90;9.60;;;5.70;99.90;;;;;;5152058;27;20220;-80
2023/12/07 10:10:15;;;;;;;10.10;9.80;;;5.90;99.90;;;;;;5160427;27;20297;-79
2023/12/07 10:12:47;;;;;;;10.33;10.03;;;5.90;99.90;;;;;;5160037;27;21077;-79
2023/12/07 10:15:16;;;;;;;10.40;10.10;;;5.90;99.90;;;;;;5159738;27;20208;-80
2023/12/07 10:17:54;;;;;;;10.20;9.90;;;5.80;99.90;;;;;;5159210;27;20259;-79
2023/12/07 10:20:23;;;;;;;10.40;10.10;;;5.70;99.90;;;;;;5153919;27;20295;-79
2023/12/07 10:23:02;;;;;;;10.13;9.83;;;5.90;99.90;;;;;;5154272;27;20221;-80
2023/12/07 10:25:30;;;;;;;9.97;9.67;;;6.20;99.90;;;;;;5153279;27;20323;-79
2023/12/07 10:27:57;;;;;;;10.47;10.17;;;6.40;99.90;;;;;;5151695;27;20228;-80
2023/12/07 10:30:25;;;;;;;10.70;10.40;;;6.50;99.90;;;;;;5151158;27;20250;-80
2023/12/07 10:32:54;;;;;;;11.00;10.70;;;6.60;99.90;;;;;;5149929;27;20224;-80
2023/12/07 10:35:21;;;;;;;10.87;10.57;;;6.60;99.90;;;;;;5149812;27;20286;-79
2023/12/07 10:37:49;;;;;;;11.00;10.70;;;6.50;99.90;;;;;;5150173;27;20240;-80
2023/12/07 10:40:17;;;;;;;10.80;10.50;;;6.30;99.90;;;;;;5150570;27;20252;-79
2023/12/07 10:42:49;;;;;;;10.90;10.60;;;6.10;99.90;;;;;;5149787;27;20232;-80
2023/12/07 10:45:17;;;;;;;11.20;10.90;;;6.00;99.90;;;;;;5149630;27;20284;-81
2023/12/07 10:47:46;;;;;;;10.80;10.50;;;5.90;99.90;;;;;;5147453;27;20236;-80
2023/12/07 10:50:23;;;;;;;10.97;10.67;;;5.90;99.90;;;;;;5148374;27;20234;-80
2023/12/07 10:52:54;;;;;;;11.23;10.93;;;5.90;99.90;;;;;;5148632;27;20223;-80
2023/12/07 10:55:24;;;;;;;11.10;10.80;;;5.80;99.90;;;;;;5148617;27;20224;-80
2023/12/07 10:57:54;;;;;;;11.10;10.80;;;5.70;99.90;;;;;;5147954;27;20349;-81
2023/12/07 11:00:24;;;;;;;11.57;11.17;;;5.80;99.90;;;;;;5148314;27;20285;-80
2023/12/07 11:02:53;;;;;;;11.10;10.80;;;5.80;99.90;;;;;;5148275;27;20236;-81
2023/12/07 11:05:22;;;;;;;11.50;11.10;;;5.90;99.90;;;;;;5148184;27;20267;-81
2023/12/07 11:08:00;;;;;;;11.07;10.77;;;5.80;99.90;;;;;;5148806;27;20228;-81
2023/12/07 11:10:37;;;;;;;11.00;10.70;;;5.80;99.90;;;;;;5147776;27;20319;-81
2023/12/07 11:13:13;;;;;;;10.90;10.60;;;5.90;99.90;;;;;;5153221;27;20235;-81
2023/12/07 11:15:40;;;;;;;10.70;10.40;;;6.00;99.90;;;;;;5154683;27;20232;-81
2023/12/07 11:18:08;;;;;;;10.87;10.57;;;6.00;99.90;;;;;;5150887;27;20314;-81
2023/12/07 11:20:44;;;;;;;10.77;10.47;;;5.80;99.90;;;;;;5149347;27;20289;-81
2023/12/07 11:23:11;;;;;;;10.83;10.53;;;5.60;99.90;;;;;;5149141;27;20227;-81
2023/12/07 11:25:39;;;;;;;10.60;10.30;;;5.70;99.90;;;;;;5148451;27;20220;-80
2023/12/07 11:28:09;;;;;;;10.87;10.57;;;5.70;99.90;;;;;;5147370;27;20220;-81
2023/12/07 11:30:38;;;;;;;10.80;10.50;;;5.70;99.90;;;;;;5145690;27;20332;-81
2023/12/07 11:33:07;;;;;;;10.60;10.30;;;5.70;99.90;;;;;;5145217;27;20232;-80
2023/12/07 11:35:34;;;;;;;10.80;10.50;;;5.80;99.90;;;;;;5145808;27;20228;-81
2023/12/07 11:38:07;;;;;;;10.50;10.20;;;6.10;99.90;;;;;;5146588;27;20322;-79
2023/12/07 11:40:37;;;;;;;10.73;10.43;;;6.40;99.90;;;;;;5145989;27;20236;-79
2023/12/07 11:43:09;;;;;;;10.77;10.47;;;6.80;99.90;;;;;;5146328;27;20220;-79
2023/12/07 11:45:49;;;;;;;11.00;10.70;;;7.00;99.90;;;;;;5145571;27;20224;-80
2023/12/07 11:48:22;;;;;;;11.10;10.80;;;6.90;99.90;;;;;;5146255;27;20235;-80
2023/12/07 11:51:00;;;;;;;10.97;10.67;;;6.80;99.90;;;;;;5150546;27;20283;-80
2023/12/07 11:53:30;;;;;;;11.00;10.70;;;6.80;99.90;;;;;;5148645;27;20212;-80
2023/12/07 11:55:58;;;;;;;10.90;10.60;;;6.90;99.90;;;;;;5147612;27;20273;-80
2023/12/07 11:58:27;;;;;;;10.90;10.60;;;6.90;99.90;;;;;;5146584;27;20231;-82
2023/12/07 12:00:56;;;;;;;10.73;10.43;;;6.50;99.90;;;;;;5145737;27;20235;-81
2023/12/07 12:03:23;;;;;;;10.97;10.67;;;6.30;99.90;;;;;;5146937;27;20287;-81
2023/12/07 12:05:51;;;;;;;10.83;10.53;;;6.20;99.90;;;;;;5147584;27;20224;-80
2023/12/07 12:08:19;;;;;;;10.87;10.57;;;6.00;99.90;;;;;;5147149;27;20228;-80
2023/12/07 12:10:51;;;;;;;11.10;10.80;;;5.90;99.90;;;;;;5146889;27;20243;-81
2023/12/07 12:13:19;;;;;;;11.10;10.80;;;5.60;99.90;;;;;;5153060;27;20247;-81
2023/12/07 12:15:47;;;;;;;11.00;10.70;;;5.40;99.90;;;;;;5150031;27;20212;-81
2023/12/07 12:18:16;;;;;;;10.77;10.47;;;5.10;99.90;;;;;;5149276;27;20277;-82
2023/12/07 12:20:46;;;;;;;10.73;10.43;;;4.80;99.90;;;;;;5149305;27;20236;-81
2023/12/07 12:23:13;;;;;;;11.07;10.77;;;4.70;99.90;;;;;;5147448;27;20223;-80
2023/12/07 12:25:41;;;;;;;10.70;10.40;;;4.50;99.90;;;;;;5147854;27;20217;-80
2023/12/07 12:28:11;;;;;;;10.73;10.43;;;4.50;99.90;;;;;;5146371;27;20224;-81
2023/12/07 12:30:39;;;;;;;10.80;10.50;;;4.40;99.90;;;;;;5147047;27;20321;-81
2023/12/07 12:33:06;;;;;;;10.40;10.10;;;4.20;99.90;;;;;;5147259;27;20232;-80
2023/12/07 12:35:33;;;;;;;10.70;10.40;;;4.30;99.90;;;;;;5146704;27;20228;-80
2023/12/07 12:38:01;;;;;;;10.47;10.17;;;4.50;99.90;;;;;;5145958;27;20235;-81
2023/12/07 12:40:32;;;;;;;10.70;10.40;;;4.70;99.90;;;;;;5145995;27;20232;-80
2023/12/07 12:43:00;;;;;;;10.60;10.30;;;4.90;99.90;;;;;;5146423;27;20220;-80
2023/12/07 12:45:29;;;;;;;10.60;10.30;;;5.00;99.90;;;;;;5145353;27;20224;-82
2023/12/07 12:47:57;;;;;;;10.77;10.47;;;5.20;99.90;;;;;;5146578;27;20259;-82